Rejestracja

Wszystkie dane podawane są w czasie UTC za wyjątkiem miejsc gdzie jest jednoznacznie podane, że jest inaczej. Dane podawane w serwisie mają charakter informacyjny!!!
Informacje w sprawie dostępu do serwisu pod numerem tel. +48 261-828-138
Informacja dla żołnierzy i pracowników wojska: Prosimy o niezwłoczną zmianę adresu e-mail w profilu użytkownika na pocztę w domenie @ron.mil.pl

Aktualna Pogoda
 
Pogoda w Polsce
20°C Szczecin 17°C Suwałki 20°C Warszawa 22°C Poznan
22°C Opole 21°C Kraków 21°C Rzeszów
Więcej miast w Polsce

Pogoda w Europie
24°C Berlin 21°C Paryz 19°C Bruksela 17°C Oslo
24°C Praga 24°C Zagrzeb
Więcej miast w Europie

Metary wojskowe test
METAR EPBC 180800Z 33004KT CAVOK 19/10 Q1013=
METAR EPCE 180900Z 10004KT 080V150 9999 SCT052 17/11 Q1014 RMK 173 066 4/4=
METAR EPDA 180930Z 29008KT 250V320 9999 FEW026 SCT060 18/12 Q1014 RMK 184 065 3/1=
METAR EPDE 180900Z 31010KT 9999 SCT040 20/09 Q1013 RMK 200 048 3/3=
METAR EPIR 180900Z VRB02KT 9999 SCT042 20/08 Q1013 RMK 204 044 3/3=
METAR EPKS 180900Z 32005KT 270V010 9999 FEW053 22/08 Q1013 RMK 222 040 2/2=
METAR COR EPLK 180900Z 30005KT 9999 BKN050 BKN200 21/07 Q1013 RMK 211 040 6/5=
METAR EPLY 180900Z VRB02KT 9999 SCT050 22/10 Q1013 RMK 216 046 4/4=
METAR EPMB 180900Z 31003KT 270V010 9999 SCT033 21/12 Q1013 RMK 207 058 4/4=
METAR EPMI 180900Z VRB03KT 9999 FEW038 20/09 Q1014 RMK 196 051 2/2=
METAR EPMM 180900Z 31010KT 260V320 9999 SCT027 19/11 Q1013 RMK 185 062 4/4=
METAR EPNA 180900Z 29002KT 9999 SCT033 21/08 Q1014 RMK 210 046 3/3=
METAR EPOK 180900Z 07005KT 030V100 9999 SCT024 19/13 Q1014 RMK 189 070 4/4=
METAR EPPR 180900Z 03004KT 9999 SCT033 19/10 Q1013 RMK 191 057 3/3=
METAR EPPW 180900Z 05004KT 9999 SCT046 21/08 Q1013 RMK 211 043 4/4=
METAR EPSN 180900Z VRB02KT 9999 FEW040 20/09 Q1014 RMK 195 049 2/2=
METAR EPTM 180900Z 34004KT 9999 SCT047 BKN200 20/07 Q1014 RMK 199 044 5/4=


 

Prawa autorskie©2007 SSH SZ RP. Wszelkie prawa zastrzeżone.